sensor_id;sensor_type;location;lat;lon;timestamp;P1;durP1;ratioP1;P2;durP2;ratioP2
24383;SDS011;12504;52.870;8.798;2023-02-28T00:00:32;20.60;;;10.38;;
24383;SDS011;12504;52.870;8.798;2023-02-28T00:02:59;18.73;;;9.82;;
24383;SDS011;12504;52.870;8.798;2023-02-28T00:05:25;18.00;;;9.48;;
24383;SDS011;12504;52.870;8.798;2023-02-28T00:07:52;15.65;;;9.65;;
24383;SDS011;12504;52.870;8.798;2023-02-28T00:10:24;20.60;;;11.10;;
24383;SDS011;12504;52.870;8.798;2023-02-28T00:12:53;17.00;;;10.98;;
24383;SDS011;12504;52.870;8.798;2023-02-28T00:15:22;18.00;;;12.15;;
24383;SDS011;12504;52.870;8.798;2023-02-28T00:17:49;21.33;;;12.70;;
24383;SDS011;12504;52.870;8.798;2023-02-28T00:20:16;22.67;;;12.40;;
24383;SDS011;12504;52.870;8.798;2023-02-28T00:22:43;28.42;;;14.23;;
24383;SDS011;12504;52.870;8.798;2023-02-28T00:25:11;24.80;;;13.68;;
24383;SDS011;12504;52.870;8.798;2023-02-28T00:27:39;31.05;;;15.82;;
24383;SDS011;12504;52.870;8.798;2023-02-28T00:30:06;23.80;;;13.00;;
24383;SDS011;12504;52.870;8.798;2023-02-28T00:32:36;27.83;;;11.88;;
24383;SDS011;12504;52.870;8.798;2023-02-28T00:35:02;24.40;;;11.50;;
24383;SDS011;12504;52.870;8.798;2023-02-28T00:37:28;14.88;;;9.30;;
24383;SDS011;12504;52.870;8.798;2023-02-28T00:39:55;14.50;;;8.80;;
24383;SDS011;12504;52.870;8.798;2023-02-28T00:42:21;15.35;;;8.98;;
24383;SDS011;12504;52.870;8.798;2023-02-28T00:44:47;14.38;;;8.25;;
24383;SDS011;12504;52.870;8.798;2023-02-28T00:47:12;16.02;;;8.93;;
24383;SDS011;12504;52.870;8.798;2023-02-28T00:49:38;18.30;;;9.48;;
24383;SDS011;12504;52.870;8.798;2023-02-28T00:52:04;16.05;;;7.85;;
24383;SDS011;12504;52.870;8.798;2023-02-28T00:54:29;16.13;;;8.82;;
24383;SDS011;12504;52.870;8.798;2023-02-28T00:57:13;15.77;;;8.07;;
24383;SDS011;12504;52.870;8.798;2023-02-28T00:59:39;21.83;;;9.23;;
24383;SDS011;12504;52.870;8.798;2023-02-28T01:02:07;20.23;;;8.25;;
24383;SDS011;12504;52.870;8.798;2023-02-28T01:04:35;18.20;;;10.32;;
24383;SDS011;12504;52.870;8.798;2023-02-28T01:07:01;14.02;;;9.57;;
24383;SDS011;12504;52.870;8.798;2023-02-28T01:09:27;15.68;;;8.30;;
24383;SDS011;12504;52.870;8.798;2023-02-28T01:11:53;18.30;;;9.18;;
24383;SDS011;12504;52.870;8.798;2023-02-28T01:14:19;18.45;;;9.98;;
24383;SDS011;12504;52.870;8.798;2023-02-28T01:16:45;13.93;;;8.55;;
24383;SDS011;12504;52.870;8.798;2023-02-28T01:19:11;17.70;;;8.30;;
24383;SDS011;12504;52.870;8.798;2023-02-28T01:21:38;17.30;;;8.88;;
24383;SDS011;12504;52.870;8.798;2023-02-28T01:24:04;19.05;;;9.00;;
24383;SDS011;12504;52.870;8.798;2023-02-28T01:26:31;18.98;;;10.13;;
24383;SDS011;12504;52.870;8.798;2023-02-28T01:28:57;19.50;;;9.18;;
24383;SDS011;12504;52.870;8.798;2023-02-28T01:31:24;18.17;;;9.52;;
24383;SDS011;12504;52.870;8.798;2023-02-28T01:33:50;23.20;;;9.38;;
24383;SDS011;12504;52.870;8.798;2023-02-28T01:36:20;24.85;;;10.18;;
24383;SDS011;12504;52.870;8.798;2023-02-28T01:38:47;22.08;;;9.75;;
24383;SDS011;12504;52.870;8.798;2023-02-28T01:46:11;17.77;;;9.90;;
24383;SDS011;12504;52.870;8.798;2023-02-28T01:48:42;19.13;;;9.85;;
24383;SDS011;12504;52.870;8.798;2023-02-28T01:51:15;15.45;;;9.00;;
24383;SDS011;12504;52.870;8.798;2023-02-28T01:53:48;21.88;;;8.98;;
24383;SDS011;12504;52.870;8.798;2023-02-28T01:56:19;14.35;;;9.13;;
24383;SDS011;12504;52.870;8.798;2023-02-28T01:58:50;24.00;;;9.95;;
24383;SDS011;12504;52.870;8.798;2023-02-28T02:01:18;20.70;;;10.75;;
24383;SDS011;12504;52.870;8.798;2023-02-28T02:03:49;25.83;;;11.40;;
24383;SDS011;12504;52.870;8.798;2023-02-28T02:06:25;18.52;;;10.10;;
24383;SDS011;12504;52.870;8.798;2023-02-28T02:08:56;17.58;;;9.73;;
24383;SDS011;12504;52.870;8.798;2023-02-28T02:11:22;15.57;;;9.70;;
24383;SDS011;12504;52.870;8.798;2023-02-28T02:40:46;16.85;;;8.32;;
24383;SDS011;12504;52.870;8.798;2023-02-28T02:43:41;16.60;;;8.85;;
24383;SDS011;12504;52.870;8.798;2023-02-28T02:48:57;13.40;;;8.73;;
24383;SDS011;12504;52.870;8.798;2023-02-28T02:51:25;19.42;;;8.57;;
24383;SDS011;12504;52.870;8.798;2023-02-28T02:53:57;14.30;;;8.45;;
24383;SDS011;12504;52.870;8.798;2023-02-28T02:56:32;13.02;;;7.82;;
24383;SDS011;12504;52.870;8.798;2023-02-28T02:59:01;18.55;;;8.20;;
24383;SDS011;12504;52.870;8.798;2023-02-28T03:01:48;20.92;;;8.57;;
24383;SDS011;12504;52.870;8.798;2023-02-28T03:04:20;13.40;;;7.05;;
24383;SDS011;12504;52.870;8.798;2023-02-28T03:06:48;14.52;;;8.98;;
24383;SDS011;12504;52.870;8.798;2023-02-28T03:09:21;13.48;;;8.10;;
24383;SDS011;12504;52.870;8.798;2023-02-28T03:11:48;14.02;;;7.55;;
24383;SDS011;12504;52.870;8.798;2023-02-28T03:14:21;13.52;;;7.57;;
24383;SDS011;12504;52.870;8.798;2023-02-28T03:19:55;12.98;;;6.07;;
24383;SDS011;12504;52.870;8.798;2023-02-28T03:22:40;21.83;;;7.35;;
24383;SDS011;12504;52.870;8.798;2023-02-28T03:27:55;11.38;;;6.15;;
24383;SDS011;12504;52.870;8.798;2023-02-28T03:30:33;12.25;;;7.32;;
24383;SDS011;12504;52.870;8.798;2023-02-28T03:33:05;11.48;;;6.60;;
24383;SDS011;12504;52.870;8.798;2023-02-28T03:35:39;17.20;;;8.32;;
24383;SDS011;12504;52.870;8.798;2023-02-28T03:38:14;12.65;;;6.68;;
24383;SDS011;12504;52.870;8.798;2023-02-28T03:40:46;11.23;;;7.22;;
24383;SDS011;12504;52.870;8.798;2023-02-28T03:43:22;15.82;;;7.88;;
24383;SDS011;12504;52.870;8.798;2023-02-28T03:45:53;11.85;;;6.55;;
24383;SDS011;12504;52.870;8.798;2023-02-28T03:49:03;10.30;;;6.50;;
24383;SDS011;12504;52.870;8.798;2023-02-28T03:51:15;13.90;;;7.70;;
24383;SDS011;12504;52.870;8.798;2023-02-28T03:53:46;14.18;;;7.03;;
24383;SDS011;12504;52.870;8.798;2023-02-28T03:56:24;13.10;;;7.20;;
24383;SDS011;12504;52.870;8.798;2023-02-28T03:59:02;11.90;;;6.60;;
24383;SDS011;12504;52.870;8.798;2023-02-28T04:02:03;11.38;;;7.10;;
24383;SDS011;12504;52.870;8.798;2023-02-28T04:04:28;11.13;;;7.00;;
24383;SDS011;12504;52.870;8.798;2023-02-28T04:07:00;13.43;;;7.20;;
24383;SDS011;12504;52.870;8.798;2023-02-28T04:09:30;16.80;;;7.40;;
24383;SDS011;12504;52.870;8.798;2023-02-28T04:11:55;15.27;;;7.40;;
24383;SDS011;12504;52.870;8.798;2023-02-28T04:14:21;10.20;;;6.70;;
24383;SDS011;12504;52.870;8.798;2023-02-28T04:16:47;14.32;;;7.47;;
24383;SDS011;12504;52.870;8.798;2023-02-28T04:19:14;14.70;;;6.68;;
24383;SDS011;12504;52.870;8.798;2023-02-28T04:21:42;15.90;;;7.07;;
24383;SDS011;12504;52.870;8.798;2023-02-28T04:24:09;18.55;;;7.55;;
24383;SDS011;12504;52.870;8.798;2023-02-28T04:26:39;11.05;;;6.30;;
24383;SDS011;12504;52.870;8.798;2023-02-28T04:29:07;11.80;;;6.78;;
24383;SDS011;12504;52.870;8.798;2023-02-28T04:31:33;86.60;;;26.10;;
24383;SDS011;12504;52.870;8.798;2023-02-28T04:33:59;11.38;;;6.40;;
24383;SDS011;12504;52.870;8.798;2023-02-28T04:36:25;14.82;;;6.78;;
24383;SDS011;12504;52.870;8.798;2023-02-28T04:38:52;16.13;;;7.35;;
24383;SDS011;12504;52.870;8.798;2023-02-28T04:41:18;14.88;;;7.78;;
24383;SDS011;12504;52.870;8.798;2023-02-28T04:43:44;16.13;;;6.60;;
24383;SDS011;12504;52.870;8.798;2023-02-28T04:46:10;11.32;;;6.07;;
24383;SDS011;12504;52.870;8.798;2023-02-28T04:48:37;11.07;;;5.95;;
24383;SDS011;12504;52.870;8.798;2023-02-28T04:51:04;14.43;;;6.97;;
24383;SDS011;12504;52.870;8.798;2023-02-28T04:53:31;17.42;;;6.85;;
24383;SDS011;12504;52.870;8.798;2023-02-28T04:55:57;15.60;;;7.50;;
24383;SDS011;12504;52.870;8.798;2023-02-28T04:58:23;12.82;;;6.50;;
24383;SDS011;12504;52.870;8.798;2023-02-28T05:00:50;14.77;;;6.35;;
24383;SDS011;12504;52.870;8.798;2023-02-28T05:03:16;8.68;;;6.45;;
24383;SDS011;12504;52.870;8.798;2023-02-28T05:05:42;7.72;;;5.55;;
24383;SDS011;12504;52.870;8.798;2023-02-28T05:08:08;10.55;;;6.50;;
24383;SDS011;12504;52.870;8.798;2023-02-28T05:10:35;8.93;;;5.50;;
24383;SDS011;12504;52.870;8.798;2023-02-28T05:13:03;14.07;;;6.90;;
24383;SDS011;12504;52.870;8.798;2023-02-28T05:15:29;12.15;;;6.82;;
24383;SDS011;12504;52.870;8.798;2023-02-28T05:18:14;17.55;;;7.47;;
24383;SDS011;12504;52.870;8.798;2023-02-28T05:20:41;13.60;;;6.65;;
24383;SDS011;12504;52.870;8.798;2023-02-28T05:23:08;10.73;;;6.32;;
24383;SDS011;12504;52.870;8.798;2023-02-28T05:25:34;11.98;;;6.22;;
24383;SDS011;12504;52.870;8.798;2023-02-28T05:28:00;13.23;;;6.22;;
24383;SDS011;12504;52.870;8.798;2023-02-28T05:30:27;15.07;;;7.78;;
24383;SDS011;12504;52.870;8.798;2023-02-28T05:32:53;15.27;;;6.97;;
24383;SDS011;12504;52.870;8.798;2023-02-28T05:35:19;13.40;;;6.75;;
24383;SDS011;12504;52.870;8.798;2023-02-28T05:37:46;15.15;;;7.00;;
24383;SDS011;12504;52.870;8.798;2023-02-28T05:40:12;12.68;;;7.80;;
24383;SDS011;12504;52.870;8.798;2023-02-28T05:42:39;21.70;;;9.43;;
24383;SDS011;12504;52.870;8.798;2023-02-28T05:45:05;15.95;;;8.10;;
24383;SDS011;12504;52.870;8.798;2023-02-28T05:47:31;17.85;;;10.27;;
24383;SDS011;12504;52.870;8.798;2023-02-28T05:49:57;14.85;;;8.63;;
24383;SDS011;12504;52.870;8.798;2023-02-28T05:52:24;23.52;;;9.35;;
24383;SDS011;12504;52.870;8.798;2023-02-28T05:54:49;16.92;;;8.68;;
24383;SDS011;12504;52.870;8.798;2023-02-28T05:57:16;16.77;;;8.90;;
24383;SDS011;12504;52.870;8.798;2023-02-28T05:59:41;14.15;;;9.45;;
24383;SDS011;12504;52.870;8.798;2023-02-28T06:02:10;18.88;;;10.00;;
24383;SDS011;12504;52.870;8.798;2023-02-28T06:04:38;16.33;;;8.55;;
24383;SDS011;12504;52.870;8.798;2023-02-28T06:07:05;18.35;;;9.88;;
24383;SDS011;12504;52.870;8.798;2023-02-28T06:09:32;14.30;;;8.98;;
24383;SDS011;12504;52.870;8.798;2023-02-28T06:11:58;17.77;;;9.18;;
24383;SDS011;12504;52.870;8.798;2023-02-28T06:14:25;17.55;;;9.57;;
24383;SDS011;12504;52.870;8.798;2023-02-28T06:16:51;16.13;;;9.50;;
24383;SDS011;12504;52.870;8.798;2023-02-28T06:19:17;16.88;;;9.45;;
24383;SDS011;12504;52.870;8.798;2023-02-28T06:21:43;17.63;;;10.25;;
24383;SDS011;12504;52.870;8.798;2023-02-28T06:24:09;19.73;;;10.55;;
24383;SDS011;12504;52.870;8.798;2023-02-28T06:26:56;16.35;;;10.02;;
24383;SDS011;12504;52.870;8.798;2023-02-28T06:29:24;17.75;;;10.50;;
24383;SDS011;12504;52.870;8.798;2023-02-28T06:31:50;15.73;;;9.68;;
24383;SDS011;12504;52.870;8.798;2023-02-28T06:34:16;18.27;;;10.13;;
24383;SDS011;12504;52.870;8.798;2023-02-28T06:36:42;21.27;;;10.23;;
24383;SDS011;12504;52.870;8.798;2023-02-28T06:39:08;16.27;;;9.75;;
24383;SDS011;12504;52.870;8.798;2023-02-28T06:41:35;19.20;;;9.73;;
24383;SDS011;12504;52.870;8.798;2023-02-28T06:44:03;18.30;;;10.45;;
24383;SDS011;12504;52.870;8.798;2023-02-28T06:46:31;16.15;;;9.90;;
24383;SDS011;12504;52.870;8.798;2023-02-28T06:48:57;18.85;;;8.75;;
24383;SDS011;12504;52.870;8.798;2023-02-28T06:51:23;17.08;;;9.70;;
24383;SDS011;12504;52.870;8.798;2023-02-28T06:53:50;21.63;;;10.70;;
24383;SDS011;12504;52.870;8.798;2023-02-28T06:56:16;18.88;;;9.88;;
24383;SDS011;12504;52.870;8.798;2023-02-28T06:58:47;22.27;;;10.02;;
24383;SDS011;12504;52.870;8.798;2023-02-28T07:01:14;19.63;;;11.35;;
24383;SDS011;12504;52.870;8.798;2023-02-28T07:03:40;18.25;;;9.82;;
24383;SDS011;12504;52.870;8.798;2023-02-28T07:06:05;19.02;;;11.50;;
24383;SDS011;12504;52.870;8.798;2023-02-28T07:08:32;23.10;;;11.25;;
24383;SDS011;12504;52.870;8.798;2023-02-28T07:10:59;17.55;;;10.55;;
24383;SDS011;12504;52.870;8.798;2023-02-28T07:13:25;21.65;;;11.02;;
24383;SDS011;12504;52.870;8.798;2023-02-28T07:15:54;24.90;;;10.48;;
24383;SDS011;12504;52.870;8.798;2023-02-28T07:18:46;22.50;;;11.68;;
24383;SDS011;12504;52.870;8.798;2023-02-28T07:21:11;16.13;;;8.93;;
24383;SDS011;12504;52.870;8.798;2023-02-28T07:23:37;20.58;;;10.98;;
24383;SDS011;12504;52.870;8.798;2023-02-28T07:26:04;17.67;;;9.65;;
24383;SDS011;12504;52.870;8.798;2023-02-28T07:28:31;16.80;;;8.50;;
24383;SDS011;12504;52.870;8.798;2023-02-28T07:31:02;16.40;;;8.75;;
24383;SDS011;12504;52.870;8.798;2023-02-28T07:33:30;16.88;;;9.05;;
24383;SDS011;12504;52.870;8.798;2023-02-28T07:36:06;17.20;;;8.70;;
24383;SDS011;12504;52.870;8.798;2023-02-28T07:38:35;16.02;;;10.75;;
24383;SDS011;12504;52.870;8.798;2023-02-28T07:41:03;19.73;;;8.50;;
24383;SDS011;12504;52.870;8.798;2023-02-28T07:43:30;21.42;;;9.57;;
24383;SDS011;12504;52.870;8.798;2023-02-28T07:48:29;15.82;;;8.70;;
24383;SDS011;12504;52.870;8.798;2023-02-28T07:50:56;15.40;;;9.65;;
24383;SDS011;12504;52.870;8.798;2023-02-28T07:53:22;19.85;;;11.68;;
24383;SDS011;12504;52.870;8.798;2023-02-28T07:55:48;15.75;;;9.63;;
24383;SDS011;12504;52.870;8.798;2023-02-28T07:58:14;25.20;;;12.43;;
24383;SDS011;12504;52.870;8.798;2023-02-28T08:00:40;19.80;;;11.05;;
24383;SDS011;12504;52.870;8.798;2023-02-28T08:03:05;18.00;;;11.45;;
24383;SDS011;12504;52.870;8.798;2023-02-28T08:05:31;28.90;;;14.00;;
24383;SDS011;12504;52.870;8.798;2023-02-28T08:07:58;23.48;;;13.18;;
24383;SDS011;12504;52.870;8.798;2023-02-28T08:10:23;18.52;;;11.52;;
24383;SDS011;12504;52.870;8.798;2023-02-28T08:12:49;18.40;;;11.07;;
24383;SDS011;12504;52.870;8.798;2023-02-28T08:15:15;19.95;;;10.82;;
24383;SDS011;12504;52.870;8.798;2023-02-28T08:17:41;14.02;;;9.82;;
24383;SDS011;12504;52.870;8.798;2023-02-28T08:20:07;17.92;;;9.40;;
24383;SDS011;12504;52.870;8.798;2023-02-28T08:22:34;16.33;;;10.35;;
24383;SDS011;12504;52.870;8.798;2023-02-28T08:25:00;13.77;;;8.48;;
24383;SDS011;12504;52.870;8.798;2023-02-28T08:27:25;8.70;;;6.18;;
24383;SDS011;12504;52.870;8.798;2023-02-28T08:29:51;7.68;;;4.88;;
24383;SDS011;12504;52.870;8.798;2023-02-28T08:32:17;10.13;;;6.10;;
24383;SDS011;12504;52.870;8.798;2023-02-28T08:34:42;9.43;;;5.95;;
24383;SDS011;12504;52.870;8.798;2023-02-28T08:37:08;14.25;;;6.05;;
24383;SDS011;12504;52.870;8.798;2023-02-28T08:39:34;7.50;;;4.43;;
24383;SDS011;12504;52.870;8.798;2023-02-28T08:42:01;8.93;;;3.20;;
24383;SDS011;12504;52.870;8.798;2023-02-28T08:44:27;3.80;;;3.05;;
24383;SDS011;12504;52.870;8.798;2023-02-28T08:46:53;2.45;;;2.25;;
24383;SDS011;12504;52.870;8.798;2023-02-28T08:49:19;5.78;;;2.60;;
24383;SDS011;12504;52.870;8.798;2023-02-28T08:51:44;2.53;;;1.88;;
24383;SDS011;12504;52.870;8.798;2023-02-28T08:54:10;4.25;;;2.35;;
24383;SDS011;12504;52.870;8.798;2023-02-28T08:56:37;4.88;;;2.53;;
24383;SDS011;12504;52.870;8.798;2023-02-28T08:59:03;2.15;;;1.52;;
24383;SDS011;12504;52.870;8.798;2023-02-28T09:01:29;5.30;;;2.22;;
24383;SDS011;12504;52.870;8.798;2023-02-28T09:03:56;2.85;;;2.55;;
24383;SDS011;12504;52.870;8.798;2023-02-28T09:06:23;4.13;;;2.58;;
24383;SDS011;12504;52.870;8.798;2023-02-28T09:08:51;2.60;;;2.28;;
24383;SDS011;12504;52.870;8.798;2023-02-28T09:11:17;5.47;;;2.65;;
24383;SDS011;12504;52.870;8.798;2023-02-28T09:13:44;4.22;;;2.70;;
24383;SDS011;12504;52.870;8.798;2023-02-28T09:16:12;5.95;;;2.55;;
24383;SDS011;12504;52.870;8.798;2023-02-28T09:18:39;4.75;;;2.88;;
24383;SDS011;12504;52.870;8.798;2023-02-28T09:21:06;3.47;;;2.80;;
24383;SDS011;12504;52.870;8.798;2023-02-28T09:23:33;5.50;;;3.00;;
24383;SDS011;12504;52.870;8.798;2023-02-28T09:26:00;8.38;;;2.50;;
24383;SDS011;12504;52.870;8.798;2023-02-28T09:28:25;3.90;;;2.95;;
24383;SDS011;12504;52.870;8.798;2023-02-28T09:30:52;3.83;;;1.90;;
24383;SDS011;12504;52.870;8.798;2023-02-28T09:33:19;3.50;;;1.42;;
24383;SDS011;12504;52.870;8.798;2023-02-28T09:35:46;2.40;;;1.63;;
24383;SDS011;12504;52.870;8.798;2023-02-28T09:38:16;4.03;;;1.65;;
24383;SDS011;12504;52.870;8.798;2023-02-28T09:40:47;3.85;;;1.40;;
24383;SDS011;12504;52.870;8.798;2023-02-28T09:43:15;4.20;;;1.50;;
24383;SDS011;12504;52.870;8.798;2023-02-28T09:45:45;1.13;;;0.98;;
24383;SDS011;12504;52.870;8.798;2023-02-28T09:48:18;2.17;;;1.25;;
24383;SDS011;12504;52.870;8.798;2023-02-28T09:50:59;2.45;;;0.98;;
24383;SDS011;12504;52.870;8.798;2023-02-28T09:53:29;2.17;;;1.00;;
24383;SDS011;12504;52.870;8.798;2023-02-28T09:58:47;1.63;;;1.05;;
24383;SDS011;12504;52.870;8.798;2023-02-28T10:01:39;2.10;;;1.33;;
24383;SDS011;12504;52.870;8.798;2023-02-28T10:04:31;0.98;;;0.90;;
24383;SDS011;12504;52.870;8.798;2023-02-28T10:07:11;1.80;;;1.05;;
24383;SDS011;12504;52.870;8.798;2023-02-28T10:10:27;3.72;;;1.38;;
24383;SDS011;12504;52.870;8.798;2023-02-28T10:12:55;1.67;;;1.23;;
24383;SDS011;12504;52.870;8.798;2023-02-28T10:15:24;2.78;;;1.10;;
24383;SDS011;12504;52.870;8.798;2023-02-28T10:17:57;2.97;;;1.60;;
24383;SDS011;12504;52.870;8.798;2023-02-28T10:20:28;2.08;;;1.30;;
24383;SDS011;12504;52.870;8.798;2023-02-28T10:25:55;1.45;;;1.00;;
24383;SDS011;12504;52.870;8.798;2023-02-28T10:28:26;2.20;;;1.35;;
24383;SDS011;12504;52.870;8.798;2023-02-28T10:30:54;3.70;;;1.50;;
24383;SDS011;12504;52.870;8.798;2023-02-28T10:33:23;1.35;;;1.08;;
24383;SDS011;12504;52.870;8.798;2023-02-28T10:35:56;1.52;;;0.80;;
24383;SDS011;12504;52.870;8.798;2023-02-28T10:38:23;4.43;;;2.35;;
24383;SDS011;12504;52.870;8.798;2023-02-28T10:44:17;2.65;;;1.30;;
24383;SDS011;12504;52.870;8.798;2023-02-28T10:46:48;1.17;;;1.05;;
24383;SDS011;12504;52.870;8.798;2023-02-28T10:49:27;3.15;;;1.00;;
24383;SDS011;12504;52.870;8.798;2023-02-28T10:52:10;3.03;;;1.17;;
24383;SDS011;12504;52.870;8.798;2023-02-28T10:54:45;3.60;;;0.90;;
24383;SDS011;12504;52.870;8.798;2023-02-28T10:57:25;1.77;;;1.08;;
24383;SDS011;12504;52.870;8.798;2023-02-28T11:00:17;4.57;;;1.27;;
24383;SDS011;12504;52.870;8.798;2023-02-28T11:02:39;1.55;;;1.40;;
24383;SDS011;12504;52.870;8.798;2023-02-28T11:05:24;2.33;;;1.27;;
24383;SDS011;12504;52.870;8.798;2023-02-28T11:07:53;1.55;;;1.38;;
24383;SDS011;12504;52.870;8.798;2023-02-28T11:10:43;2.42;;;1.77;;
24383;SDS011;12504;52.870;8.798;2023-02-28T11:16:37;1.65;;;1.20;;
24383;SDS011;12504;52.870;8.798;2023-02-28T11:19:51;1.58;;;1.45;;
24383;SDS011;12504;52.870;8.798;2023-02-28T11:22:26;1.95;;;1.13;;
24383;SDS011;12504;52.870;8.798;2023-02-28T11:25:15;2.10;;;1.48;;
24383;SDS011;12504;52.870;8.798;2023-02-28T11:27:50;4.00;;;1.60;;
24383;SDS011;12504;52.870;8.798;2023-02-28T11:30:26;4.53;;;1.80;;
24383;SDS011;12504;52.870;8.798;2023-02-28T11:36:29;3.17;;;1.38;;
24383;SDS011;12504;52.870;8.798;2023-02-28T11:39:07;1.90;;;1.20;;
24383;SDS011;12504;52.870;8.798;2023-02-28T11:42:57;1.10;;;1.00;;
24383;SDS011;12504;52.870;8.798;2023-02-28T12:25:06;2.08;;;1.25;;
24383;SDS011;12504;52.870;8.798;2023-02-28T12:27:28;2.35;;;1.42;;
24383;SDS011;12504;52.870;8.798;2023-02-28T12:30:02;2.65;;;1.42;;
24383;SDS011;12504;52.870;8.798;2023-02-28T12:38:43;3.53;;;2.13;;
24383;SDS011;12504;52.870;8.798;2023-02-28T12:44:00;2.10;;;1.30;;
24383;SDS011;12504;52.870;8.798;2023-02-28T12:46:30;2.25;;;1.20;;
24383;SDS011;12504;52.870;8.798;2023-02-28T12:49:16;1.35;;;1.20;;
24383;SDS011;12504;52.870;8.798;2023-02-28T12:51:49;2.60;;;1.35;;
24383;SDS011;12504;52.870;8.798;2023-02-28T12:56:48;1.20;;;0.90;;
24383;SDS011;12504;52.870;8.798;2023-02-28T12:59:23;1.38;;;1.20;;
24383;SDS011;12504;52.870;8.798;2023-02-28T13:05:19;3.33;;;1.50;;
24383;SDS011;12504;52.870;8.798;2023-02-28T13:09:59;2.70;;;1.65;;
24383;SDS011;12504;52.870;8.798;2023-02-28T13:12:30;2.33;;;1.30;;
24383;SDS011;12504;52.870;8.798;2023-02-28T13:15:04;3.10;;;1.70;;
24383;SDS011;12504;52.870;8.798;2023-02-28T13:17:38;2.05;;;1.40;;
24383;SDS011;12504;52.870;8.798;2023-02-28T13:20:16;2.72;;;1.35;;
24383;SDS011;12504;52.870;8.798;2023-02-28T13:22:49;2.55;;;1.30;;
24383;SDS011;12504;52.870;8.798;2023-02-28T13:27:59;4.35;;;1.70;;
24383;SDS011;12504;52.870;8.798;2023-02-28T13:36:08;2.97;;;1.60;;
24383;SDS011;12504;52.870;8.798;2023-02-28T13:38:44;1.27;;;1.17;;
24383;SDS011;12504;52.870;8.798;2023-02-28T13:49:31;1.63;;;1.30;;
24383;SDS011;12504;52.870;8.798;2023-02-28T14:05:20;2.38;;;1.25;;
24383;SDS011;12504;52.870;8.798;2023-02-28T14:07:52;2.13;;;1.75;;
24383;SDS011;12504;52.870;8.798;2023-02-28T14:10:22;2.20;;;1.48;;
24383;SDS011;12504;52.870;8.798;2023-02-28T14:12:55;1.88;;;1.13;;
24383;SDS011;12504;52.870;8.798;2023-02-28T14:15:43;3.45;;;2.45;;
24383;SDS011;12504;52.870;8.798;2023-02-28T14:20:43;2.25;;;1.52;;
24383;SDS011;12504;52.870;8.798;2023-02-28T14:29:01;2.97;;;1.17;;
24383;SDS011;12504;52.870;8.798;2023-02-28T14:34:32;3.72;;;1.73;;
24383;SDS011;12504;52.870;8.798;2023-02-28T14:37:04;1.63;;;1.48;;
24383;SDS011;12504;52.870;8.798;2023-02-28T14:39:33;1.50;;;1.30;;
24383;SDS011;12504;52.870;8.798;2023-02-28T14:42:00;2.35;;;1.50;;
24383;SDS011;12504;52.870;8.798;2023-02-28T14:44:30;1.52;;;1.30;;
24383;SDS011;12504;52.870;8.798;2023-02-28T14:46:57;2.63;;;1.55;;
24383;SDS011;12504;52.870;8.798;2023-02-28T14:49:30;3.10;;;1.63;;
24383;SDS011;12504;52.870;8.798;2023-02-28T14:54:45;3.85;;;1.60;;
24383;SDS011;12504;52.870;8.798;2023-02-28T14:57:29;3.10;;;1.67;;
24383;SDS011;12504;52.870;8.798;2023-02-28T15:00:21;4.00;;;1.65;;
24383;SDS011;12504;52.870;8.798;2023-02-28T15:02:48;1.63;;;1.50;;
24383;SDS011;12504;52.870;8.798;2023-02-28T15:05:19;2.03;;;1.20;;
24383;SDS011;12504;52.870;8.798;2023-02-28T15:08:06;2.78;;;1.60;;
24383;SDS011;12504;52.870;8.798;2023-02-28T15:10:34;6.28;;;1.48;;
24383;SDS011;12504;52.870;8.798;2023-02-28T15:13:01;3.35;;;1.63;;
24383;SDS011;12504;52.870;8.798;2023-02-28T15:18:21;1.60;;;1.50;;
24383;SDS011;12504;52.870;8.798;2023-02-28T15:20:58;4.07;;;1.55;;
24383;SDS011;12504;52.870;8.798;2023-02-28T15:23:26;1.50;;;1.27;;
24383;SDS011;12504;52.870;8.798;2023-02-28T15:25:54;2.05;;;1.42;;
24383;SDS011;12504;52.870;8.798;2023-02-28T15:28:21;2.40;;;1.35;;
24383;SDS011;12504;52.870;8.798;2023-02-28T15:30:52;1.70;;;1.42;;
24383;SDS011;12504;52.870;8.798;2023-02-28T15:33:22;2.15;;;1.50;;
24383;SDS011;12504;52.870;8.798;2023-02-28T15:35:49;3.05;;;1.30;;
24383;SDS011;12504;52.870;8.798;2023-02-28T15:38:25;8.50;;;1.70;;
24383;SDS011;12504;52.870;8.798;2023-02-28T15:40:56;2.33;;;1.10;;
24383;SDS011;12504;52.870;8.798;2023-02-28T15:45:57;2.17;;;1.65;;
24383;SDS011;12504;52.870;8.798;2023-02-28T15:48:47;1.73;;;1.30;;
24383;SDS011;12504;52.870;8.798;2023-02-28T15:51:19;1.27;;;1.17;;
24383;SDS011;12504;52.870;8.798;2023-02-28T15:56:26;1.88;;;1.65;;
24383;SDS011;12504;52.870;8.798;2023-02-28T15:58:58;6.53;;;2.35;;
24383;SDS011;12504;52.870;8.798;2023-02-28T16:01:36;4.15;;;1.58;;
24383;SDS011;12504;52.870;8.798;2023-02-28T16:04:24;1.92;;;1.10;;
24383;SDS011;12504;52.870;8.798;2023-02-28T16:09:23;2.40;;;1.88;;
24383;SDS011;12504;52.870;8.798;2023-02-28T16:11:49;3.95;;;1.35;;
24383;SDS011;12504;52.870;8.798;2023-02-28T16:14:27;3.95;;;1.48;;
24383;SDS011;12504;52.870;8.798;2023-02-28T16:17:02;3.28;;;1.80;;
24383;SDS011;12504;52.870;8.798;2023-02-28T16:19:34;3.80;;;2.92;;
24383;SDS011;12504;52.870;8.798;2023-02-28T16:22:00;3.28;;;1.25;;
24383;SDS011;12504;52.870;8.798;2023-02-28T16:24:26;2.25;;;1.42;;
24383;SDS011;12504;52.870;8.798;2023-02-28T16:26:52;2.17;;;1.48;;
24383;SDS011;12504;52.870;8.798;2023-02-28T16:29:28;1.20;;;0.98;;
24383;SDS011;12504;52.870;8.798;2023-02-28T16:31:56;5.47;;;3.67;;
24383;SDS011;12504;52.870;8.798;2023-02-28T16:34:23;3.15;;;2.00;;
24383;SDS011;12504;52.870;8.798;2023-02-28T16:36:49;2.15;;;1.40;;
24383;SDS011;12504;52.870;8.798;2023-02-28T16:39:15;3.00;;;1.75;;
24383;SDS011;12504;52.870;8.798;2023-02-28T16:41:42;3.25;;;1.70;;
24383;SDS011;12504;52.870;8.798;2023-02-28T16:44:10;4.25;;;1.55;;
24383;SDS011;12504;52.870;8.798;2023-02-28T16:46:43;3.67;;;1.35;;
24383;SDS011;12504;52.870;8.798;2023-02-28T16:49:10;3.47;;;1.30;;
24383;SDS011;12504;52.870;8.798;2023-02-28T16:51:37;8.50;;;1.42;;
24383;SDS011;12504;52.870;8.798;2023-02-28T16:54:02;2.42;;;1.90;;
24383;SDS011;12504;52.870;8.798;2023-02-28T16:56:28;4.05;;;2.38;;
24383;SDS011;12504;52.870;8.798;2023-02-28T16:58:55;2.10;;;1.80;;
24383;SDS011;12504;52.870;8.798;2023-02-28T17:01:24;4.45;;;2.25;;
24383;SDS011;12504;52.870;8.798;2023-02-28T17:03:52;3.45;;;1.73;;
24383;SDS011;12504;52.870;8.798;2023-02-28T17:06:23;4.57;;;2.20;;
24383;SDS011;12504;52.870;8.798;2023-02-28T17:08:53;3.40;;;2.10;;
24383;SDS011;12504;52.870;8.798;2023-02-28T17:11:20;6.05;;;2.67;;
24383;SDS011;12504;52.870;8.798;2023-02-28T17:13:47;4.43;;;2.72;;
24383;SDS011;12504;52.870;8.798;2023-02-28T17:16:19;3.00;;;2.30;;
24383;SDS011;12504;52.870;8.798;2023-02-28T17:18:50;6.38;;;1.75;;
24383;SDS011;12504;52.870;8.798;2023-02-28T17:21:17;4.13;;;2.03;;
24383;SDS011;12504;52.870;8.798;2023-02-28T17:23:43;2.97;;;1.80;;
24383;SDS011;12504;52.870;8.798;2023-02-28T17:26:19;2.95;;;1.80;;
24383;SDS011;12504;52.870;8.798;2023-02-28T17:28:55;4.63;;;1.75;;
24383;SDS011;12504;52.870;8.798;2023-02-28T17:31:25;2.72;;;1.60;;
24383;SDS011;12504;52.870;8.798;2023-02-28T17:33:52;1.92;;;1.73;;
24383;SDS011;12504;52.870;8.798;2023-02-28T17:36:23;3.55;;;2.03;;
24383;SDS011;12504;52.870;8.798;2023-02-28T17:38:51;4.30;;;2.10;;
24383;SDS011;12504;52.870;8.798;2023-02-28T17:44:03;6.00;;;2.47;;
24383;SDS011;12504;52.870;8.798;2023-02-28T17:46:29;5.38;;;2.30;;
24383;SDS011;12504;52.870;8.798;2023-02-28T17:49:08;4.63;;;1.63;;